sensor_id;sensor_type;location;lat;lon;timestamp;pressure;altitude;pressure_sealevel;temperature;humidity
10732;BME280;5417;42.686;23.244;2023-03-04T00:02:15;94306.06;;;7.68;80.65
10732;BME280;5417;42.686;23.244;2023-03-04T00:04:42;94323.59;;;7.88;80.86
10732;BME280;5417;42.686;23.244;2023-03-04T00:07:09;94322.34;;;7.94;79.09
10732;BME280;5417;42.686;23.244;2023-03-04T00:09:37;94326.47;;;7.97;79.14
10732;BME280;5417;42.686;23.244;2023-03-04T00:12:05;94311.41;;;7.78;78.50
10732;BME280;5417;42.686;23.244;2023-03-04T00:14:33;94321.47;;;7.70;79.88
10732;BME280;5417;42.686;23.244;2023-03-04T00:17:00;94319.34;;;7.64;80.91
10732;BME280;5417;42.686;23.244;2023-03-04T00:19:28;94310.72;;;7.63;81.63
10732;BME280;5417;42.686;23.244;2023-03-04T00:21:55;94304.34;;;7.56;82.62
10732;BME280;5417;42.686;23.244;2023-03-04T00:24:22;94312.81;;;7.58;81.71
10732;BME280;5417;42.686;23.244;2023-03-04T00:26:49;94307.44;;;7.61;81.39
10732;BME280;5417;42.686;23.244;2023-03-04T00:29:17;94307.88;;;7.79;80.51
10732;BME280;5417;42.686;23.244;2023-03-04T00:31:44;94294.53;;;7.72;79.15
10732;BME280;5417;42.686;23.244;2023-03-04T00:34:11;94300.94;;;7.55;80.16
10732;BME280;5417;42.686;23.244;2023-03-04T00:36:38;94294.56;;;7.36;80.55
10732;BME280;5417;42.686;23.244;2023-03-04T00:39:05;94295.09;;;7.28;82.56
10732;BME280;5417;42.686;23.244;2023-03-04T00:41:32;94291.06;;;7.24;82.69
10732;BME280;5417;42.686;23.244;2023-03-04T00:43:59;94296.78;;;7.29;83.12
10732;BME280;5417;42.686;23.244;2023-03-04T00:46:27;94288.69;;;7.21;83.47
10732;BME280;5417;42.686;23.244;2023-03-04T00:48:54;94302.44;;;7.34;83.23
10732;BME280;5417;42.686;23.244;2023-03-04T00:51:21;94294.78;;;7.33;82.92
10732;BME280;5417;42.686;23.244;2023-03-04T00:53:48;94298.72;;;7.38;83.76
10732;BME280;5417;42.686;23.244;2023-03-04T00:56:16;94300.16;;;7.42;82.77
10732;BME280;5417;42.686;23.244;2023-03-04T00:58:43;94301.69;;;7.45;82.02
10732;BME280;5417;42.686;23.244;2023-03-04T01:01:10;94300.66;;;7.47;82.23
10732;BME280;5417;42.686;23.244;2023-03-04T01:03:38;94304.78;;;7.50;81.69
10732;BME280;5417;42.686;23.244;2023-03-04T01:06:06;94290.41;;;7.46;82.21
10732;BME280;5417;42.686;23.244;2023-03-04T01:08:33;94295.97;;;7.52;81.45
10732;BME280;5417;42.686;23.244;2023-03-04T01:10:59;94292.53;;;7.52;80.98
10732;BME280;5417;42.686;23.244;2023-03-04T01:13:26;94300.75;;;7.70;80.43
10732;BME280;5417;42.686;23.244;2023-03-04T01:15:53;94291.72;;;7.75;79.99
10732;BME280;5417;42.686;23.244;2023-03-04T01:18:20;94290.28;;;7.71;79.62
10732;BME280;5417;42.686;23.244;2023-03-04T01:20:49;94295.69;;;7.68;80.18
10732;BME280;5417;42.686;23.244;2023-03-04T01:23:16;94288.91;;;7.78;79.44
10732;BME280;5417;42.686;23.244;2023-03-04T01:25:42;94289.47;;;7.71;79.38
10732;BME280;5417;42.686;23.244;2023-03-04T01:28:09;94286.81;;;7.59;79.89
10732;BME280;5417;42.686;23.244;2023-03-04T01:30:36;94262.56;;;7.60;78.69
10732;BME280;5417;42.686;23.244;2023-03-04T01:33:03;94283.44;;;7.70;78.60
10732;BME280;5417;42.686;23.244;2023-03-04T01:35:30;94274.13;;;7.68;78.33
10732;BME280;5417;42.686;23.244;2023-03-04T01:37:58;94273.75;;;7.61;79.25
10732;BME280;5417;42.686;23.244;2023-03-04T01:40:25;94271.09;;;7.74;79.07
10732;BME280;5417;42.686;23.244;2023-03-04T01:42:52;94266.22;;;7.82;78.13
10732;BME280;5417;42.686;23.244;2023-03-04T01:45:19;94254.13;;;7.70;77.75
10732;BME280;5417;42.686;23.244;2023-03-04T01:47:47;94262.47;;;7.62;78.83
10732;BME280;5417;42.686;23.244;2023-03-04T01:50:19;94262.91;;;7.56;78.58
10732;BME280;5417;42.686;23.244;2023-03-04T01:52:46;94259.31;;;7.46;78.53
10732;BME280;5417;42.686;23.244;2023-03-04T01:55:19;94266.75;;;7.50;79.13
10732;BME280;5417;42.686;23.244;2023-03-04T01:57:47;94258.59;;;7.44;78.98
10732;BME280;5417;42.686;23.244;2023-03-04T02:00:27;94261.53;;;7.39;79.22
10732;BME280;5417;42.686;23.244;2023-03-04T02:02:58;94257.41;;;7.37;79.56
10732;BME280;5417;42.686;23.244;2023-03-04T02:05:26;94255.84;;;7.34;79.05
10732;BME280;5417;42.686;23.244;2023-03-04T02:07:55;94256.91;;;7.32;79.37
10732;BME280;5417;42.686;23.244;2023-03-04T02:10:24;94261.44;;;7.28;79.37
10732;BME280;5417;42.686;23.244;2023-03-04T02:12:52;94256.47;;;7.25;79.08
10732;BME280;5417;42.686;23.244;2023-03-04T02:15:19;94254.41;;;7.30;79.38
10732;BME280;5417;42.686;23.244;2023-03-04T02:17:49;94257.50;;;7.35;79.47
10732;BME280;5417;42.686;23.244;2023-03-04T02:20:27;94250.06;;;7.31;80.53
10732;BME280;5417;42.686;23.244;2023-03-04T02:23:00;94246.44;;;7.20;80.31
10732;BME280;5417;42.686;23.244;2023-03-04T02:25:38;94252.84;;;7.27;79.62
10732;BME280;5417;42.686;23.244;2023-03-04T02:28:09;94247.53;;;7.42;80.36
10732;BME280;5417;42.686;23.244;2023-03-04T02:30:36;94259.31;;;7.46;79.38
10732;BME280;5417;42.686;23.244;2023-03-04T02:33:03;94254.31;;;7.55;79.67
10732;BME280;5417;42.686;23.244;2023-03-04T02:35:30;94254.63;;;7.51;79.47
10732;BME280;5417;42.686;23.244;2023-03-04T02:37:57;94241.91;;;7.48;79.21
10732;BME280;5417;42.686;23.244;2023-03-04T02:40:28;94246.31;;;7.58;78.53
10732;BME280;5417;42.686;23.244;2023-03-04T02:42:57;94237.34;;;7.51;78.00
10732;BME280;5417;42.686;23.244;2023-03-04T02:45:35;94232.59;;;7.45;78.61
10732;BME280;5417;42.686;23.244;2023-03-04T02:48:03;94237.63;;;7.36;79.55
10732;BME280;5417;42.686;23.244;2023-03-04T02:50:34;94240.53;;;7.31;80.03
10732;BME280;5417;42.686;23.244;2023-03-04T02:53:01;94235.16;;;7.21;79.27
10732;BME280;5417;42.686;23.244;2023-03-04T02:55:28;94229.97;;;7.21;78.67
10732;BME280;5417;42.686;23.244;2023-03-04T02:57:55;94236.91;;;7.21;79.23
10732;BME280;5417;42.686;23.244;2023-03-04T03:00:22;94238.06;;;7.17;79.33
10732;BME280;5417;42.686;23.244;2023-03-04T03:02:50;94239.94;;;7.15;79.17
10732;BME280;5417;42.686;23.244;2023-03-04T03:05:17;94227.72;;;7.17;78.40
10732;BME280;5417;42.686;23.244;2023-03-04T03:07:44;94236.41;;;7.16;79.21
10732;BME280;5417;42.686;23.244;2023-03-04T03:10:11;94237.69;;;7.10;79.43
10732;BME280;5417;42.686;23.244;2023-03-04T03:12:38;94229.53;;;7.04;78.97
10732;BME280;5417;42.686;23.244;2023-03-04T03:15:06;94237.78;;;7.09;79.27
10732;BME280;5417;42.686;23.244;2023-03-04T03:17:33;94234.47;;;7.07;79.41
10732;BME280;5417;42.686;23.244;2023-03-04T03:20:02;94239.66;;;7.07;79.00
10732;BME280;5417;42.686;23.244;2023-03-04T03:22:29;94232.94;;;7.04;79.48
10732;BME280;5417;42.686;23.244;2023-03-04T03:24:56;94241.41;;;7.06;78.81
10732;BME280;5417;42.686;23.244;2023-03-04T03:27:23;94237.06;;;7.07;79.58
10732;BME280;5417;42.686;23.244;2023-03-04T03:29:50;94225.50;;;7.00;78.57
10732;BME280;5417;42.686;23.244;2023-03-04T03:32:17;94233.88;;;7.03;78.12
10732;BME280;5417;42.686;23.244;2023-03-04T03:34:44;94233.88;;;7.03;78.64
10732;BME280;5417;42.686;23.244;2023-03-04T03:37:13;94243.50;;;7.01;78.09
10732;BME280;5417;42.686;23.244;2023-03-04T03:39:40;94224.19;;;6.94;78.24
10732;BME280;5417;42.686;23.244;2023-03-04T03:42:06;94229.97;;;6.97;77.58
10732;BME280;5417;42.686;23.244;2023-03-04T03:44:33;94222.75;;;6.90;77.83
10732;BME280;5417;42.686;23.244;2023-03-04T03:47:00;94230.19;;;6.94;77.04
10732;BME280;5417;42.686;23.244;2023-03-04T03:49:27;94233.69;;;6.93;77.25
10732;BME280;5417;42.686;23.244;2023-03-04T03:51:54;94216.34;;;6.83;77.65
10732;BME280;5417;42.686;23.244;2023-03-04T03:54:22;94220.47;;;6.85;76.62
10732;BME280;5417;42.686;23.244;2023-03-04T03:56:49;94216.66;;;6.78;77.40
10732;BME280;5417;42.686;23.244;2023-03-04T03:59:16;94214.38;;;6.74;76.70
10732;BME280;5417;42.686;23.244;2023-03-04T04:01:43;94226.47;;;6.73;76.43
10732;BME280;5417;42.686;23.244;2023-03-04T04:04:10;94224.09;;;6.70;77.59
10732;BME280;5417;42.686;23.244;2023-03-04T04:06:36;94215.41;;;6.71;78.45
10732;BME280;5417;42.686;23.244;2023-03-04T04:09:03;94212.81;;;6.71;78.21
10732;BME280;5417;42.686;23.244;2023-03-04T04:11:31;94192.78;;;6.62;78.34
10732;BME280;5417;42.686;23.244;2023-03-04T04:13:58;94206.94;;;6.69;78.33
10732;BME280;5417;42.686;23.244;2023-03-04T04:16:25;94203.00;;;6.63;77.99
10732;BME280;5417;42.686;23.244;2023-03-04T04:18:54;94213.66;;;6.72;78.13
10732;BME280;5417;42.686;23.244;2023-03-04T04:21:21;94211.88;;;6.72;78.53
10732;BME280;5417;42.686;23.244;2023-03-04T04:23:48;94214.47;;;6.72;78.40
10732;BME280;5417;42.686;23.244;2023-03-04T04:26:15;94212.00;;;6.71;78.32
10732;BME280;5417;42.686;23.244;2023-03-04T04:28:43;94205.50;;;6.65;78.55
10732;BME280;5417;42.686;23.244;2023-03-04T04:31:13;94214.69;;;6.69;78.62
10732;BME280;5417;42.686;23.244;2023-03-04T04:33:39;94211.69;;;6.62;77.49
10732;BME280;5417;42.686;23.244;2023-03-04T04:36:09;94224.13;;;6.57;77.59
10732;BME280;5417;42.686;23.244;2023-03-04T04:38:38;94222.78;;;6.52;76.89
10732;BME280;5417;42.686;23.244;2023-03-04T04:41:11;94211.31;;;6.43;76.29
10732;BME280;5417;42.686;23.244;2023-03-04T04:43:42;94216.50;;;6.43;77.00
10732;BME280;5417;42.686;23.244;2023-03-04T04:46:09;94210.91;;;6.37;76.64
10732;BME280;5417;42.686;23.244;2023-03-04T04:48:36;94211.13;;;6.33;76.25
10732;BME280;5417;42.686;23.244;2023-03-04T04:51:03;94210.50;;;6.30;76.85
10732;BME280;5417;42.686;23.244;2023-03-04T04:53:30;94205.53;;;6.27;76.26
10732;BME280;5417;42.686;23.244;2023-03-04T04:55:57;94221.88;;;6.27;76.81
10732;BME280;5417;42.686;23.244;2023-03-04T04:58:24;94219.41;;;6.26;77.25
10732;BME280;5417;42.686;23.244;2023-03-04T05:00:55;94215.34;;;6.22;76.87
10732;BME280;5417;42.686;23.244;2023-03-04T05:03:22;94237.75;;;6.21;75.90
10732;BME280;5417;42.686;23.244;2023-03-04T05:05:49;94243.03;;;6.20;76.73
10732;BME280;5417;42.686;23.244;2023-03-04T05:08:16;94235.28;;;6.20;77.04
10732;BME280;5417;42.686;23.244;2023-03-04T05:10:42;94239.63;;;6.19;77.10
10732;BME280;5417;42.686;23.244;2023-03-04T05:13:09;94235.91;;;6.11;76.87
10732;BME280;5417;42.686;23.244;2023-03-04T05:15:36;94247.78;;;6.13;76.27
10732;BME280;5417;42.686;23.244;2023-03-04T05:18:05;94244.38;;;6.13;75.95
10732;BME280;5417;42.686;23.244;2023-03-04T05:20:31;94246.13;;;6.12;76.61
10732;BME280;5417;42.686;23.244;2023-03-04T05:22:58;94240.75;;;6.15;76.93
10732;BME280;5417;42.686;23.244;2023-03-04T05:25:25;94248.09;;;6.21;76.79
10732;BME280;5417;42.686;23.244;2023-03-04T05:27:52;94248.44;;;6.29;76.81
10732;BME280;5417;42.686;23.244;2023-03-04T05:30:20;94253.09;;;6.37;76.28
10732;BME280;5417;42.686;23.244;2023-03-04T05:32:47;94242.53;;;6.40;75.95
10732;BME280;5417;42.686;23.244;2023-03-04T05:35:15;94241.41;;;6.57;76.32
10732;BME280;5417;42.686;23.244;2023-03-04T05:37:42;94249.66;;;6.75;76.40
10732;BME280;5417;42.686;23.244;2023-03-04T05:40:10;94247.25;;;6.97;75.74
10732;BME280;5417;42.686;23.244;2023-03-04T05:42:37;94250.69;;;7.21;75.91
10732;BME280;5417;42.686;23.244;2023-03-04T05:45:05;94253.53;;;7.42;75.18
10732;BME280;5417;42.686;23.244;2023-03-04T05:47:32;94252.44;;;7.34;74.49
10732;BME280;5417;42.686;23.244;2023-03-04T05:49:59;94255.53;;;7.26;74.78
10732;BME280;5417;42.686;23.244;2023-03-04T05:52:27;94261.88;;;7.22;76.19
10732;BME280;5417;42.686;23.244;2023-03-04T05:54:54;94255.38;;;7.16;76.52
10732;BME280;5417;42.686;23.244;2023-03-04T05:57:21;94258.66;;;7.18;76.33
10732;BME280;5417;42.686;23.244;2023-03-04T05:59:48;94258.13;;;7.26;76.14
10732;BME280;5417;42.686;23.244;2023-03-04T06:02:14;94268.25;;;7.42;76.22
10732;BME280;5417;42.686;23.244;2023-03-04T06:04:41;94269.19;;;7.41;76.41
10732;BME280;5417;42.686;23.244;2023-03-04T06:07:08;94269.72;;;7.33;75.73
10732;BME280;5417;42.686;23.244;2023-03-04T06:09:36;94277.06;;;7.39;76.29
10732;BME280;5417;42.686;23.244;2023-03-04T06:12:05;94278.84;;;7.26;77.05
10732;BME280;5417;42.686;23.244;2023-03-04T06:14:32;94269.97;;;7.17;76.78
10732;BME280;5417;42.686;23.244;2023-03-04T06:16:58;94276.19;;;7.15;77.58
10732;BME280;5417;42.686;23.244;2023-03-04T06:19:25;94275.03;;;7.19;78.27
10732;BME280;5417;42.686;23.244;2023-03-04T06:21:52;94278.22;;;7.22;78.21
10732;BME280;5417;42.686;23.244;2023-03-04T06:24:19;94279.53;;;7.41;77.62
10732;BME280;5417;42.686;23.244;2023-03-04T06:26:47;94284.50;;;7.44;78.42
10732;BME280;5417;42.686;23.244;2023-03-04T06:29:15;94287.44;;;7.63;77.39
10732;BME280;5417;42.686;23.244;2023-03-04T06:31:42;94287.59;;;7.73;76.74
10732;BME280;5417;42.686;23.244;2023-03-04T06:34:08;94283.41;;;7.83;76.60
10732;BME280;5417;42.686;23.244;2023-03-04T06:36:35;94266.16;;;7.71;76.40
10732;BME280;5417;42.686;23.244;2023-03-04T06:39:03;94288.75;;;7.69;76.23
10732;BME280;5417;42.686;23.244;2023-03-04T06:41:30;94287.03;;;7.56;77.25
10732;BME280;5417;42.686;23.244;2023-03-04T06:43:58;94292.28;;;7.44;78.13
10732;BME280;5417;42.686;23.244;2023-03-04T06:46:25;94295.69;;;7.44;78.16
10732;BME280;5417;42.686;23.244;2023-03-04T06:48:51;94280.91;;;7.34;78.34
10732;BME280;5417;42.686;23.244;2023-03-04T06:51:18;94288.91;;;7.31;78.87
10732;BME280;5417;42.686;23.244;2023-03-04T06:53:45;94278.66;;;7.16;78.16
10732;BME280;5417;42.686;23.244;2023-03-04T06:56:13;94292.13;;;7.09;78.28
10732;BME280;5417;42.686;23.244;2023-03-04T06:58:41;94290.81;;;7.03;78.79
10732;BME280;5417;42.686;23.244;2023-03-04T07:01:14;94293.91;;;7.08;79.21
10732;BME280;5417;42.686;23.244;2023-03-04T07:03:43;94299.78;;;7.10;79.25
10732;BME280;5417;42.686;23.244;2023-03-04T07:06:12;94301.00;;;7.17;78.83
10732;BME280;5417;42.686;23.244;2023-03-04T07:08:39;94299.47;;;7.15;77.31
10732;BME280;5417;42.686;23.244;2023-03-04T07:11:07;94301.44;;;7.11;77.90
10732;BME280;5417;42.686;23.244;2023-03-04T07:13:34;94300.63;;;7.11;77.97
10732;BME280;5417;42.686;23.244;2023-03-04T07:16:03;94295.66;;;7.08;78.09
10732;BME280;5417;42.686;23.244;2023-03-04T07:18:31;94279.72;;;7.01;78.24
10732;BME280;5417;42.686;23.244;2023-03-04T07:20:58;94309.63;;;7.05;77.79
10732;BME280;5417;42.686;23.244;2023-03-04T07:23:43;94299.00;;;6.84;79.13
10732;BME280;5417;42.686;23.244;2023-03-04T07:26:10;94297.44;;;6.69;79.23
10732;BME280;5417;42.686;23.244;2023-03-04T07:28:37;94309.13;;;6.62;79.97
10732;BME280;5417;42.686;23.244;2023-03-04T07:31:09;94307.91;;;6.68;80.36
10732;BME280;5417;42.686;23.244;2023-03-04T07:33:38;94304.78;;;6.62;80.70
10732;BME280;5417;42.686;23.244;2023-03-04T07:36:05;94304.38;;;6.69;79.85
10732;BME280;5417;42.686;23.244;2023-03-04T07:38:32;94306.13;;;6.68;80.31
10732;BME280;5417;42.686;23.244;2023-03-04T07:40:59;94301.50;;;6.86;79.67
10732;BME280;5417;42.686;23.244;2023-03-04T07:43:25;94299.91;;;7.09;79.44
10732;BME280;5417;42.686;23.244;2023-03-04T07:45:58;94304.06;;;6.99;77.64
10732;BME280;5417;42.686;23.244;2023-03-04T07:48:26;94293.06;;;7.08;78.04
10732;BME280;5417;42.686;23.244;2023-03-04T07:51:04;94295.63;;;7.20;77.40
10732;BME280;5417;42.686;23.244;2023-03-04T07:53:31;94299.03;;;7.34;76.19
10732;BME280;5417;42.686;23.244;2023-03-04T07:55:58;94299.09;;;7.45;77.61
10732;BME280;5417;42.686;23.244;2023-03-04T07:58:25;94298.59;;;7.40;75.75
10732;BME280;5417;42.686;23.244;2023-03-04T08:00:52;94288.75;;;7.45;75.19
10732;BME280;5417;42.686;23.244;2023-03-04T08:03:19;94294.13;;;7.42;75.33
10732;BME280;5417;42.686;23.244;2023-03-04T08:05:46;94292.50;;;7.28;75.41
10732;BME280;5417;42.686;23.244;2023-03-04T08:08:14;94292.13;;;7.09;75.61
10732;BME280;5417;42.686;23.244;2023-03-04T08:10:42;94284.88;;;7.14;76.00
10732;BME280;5417;42.686;23.244;2023-03-04T08:13:09;94290.13;;;7.25;76.48
10732;BME280;5417;42.686;23.244;2023-03-04T08:15:40;94295.94;;;7.28;75.28
10732;BME280;5417;42.686;23.244;2023-03-04T08:18:07;94299.75;;;7.36;75.24
10732;BME280;5417;42.686;23.244;2023-03-04T08:20:34;94292.59;;;7.39;75.12
10732;BME280;5417;42.686;23.244;2023-03-04T08:23:01;94288.53;;;7.48;75.17
10732;BME280;5417;42.686;23.244;2023-03-04T08:25:29;94288.41;;;7.49;74.40
10732;BME280;5417;42.686;23.244;2023-03-04T08:27:56;94290.41;;;7.46;74.00
10732;BME280;5417;42.686;23.244;2023-03-04T08:30:24;94292.91;;;7.35;73.99
10732;BME280;5417;42.686;23.244;2023-03-04T08:32:51;94289.72;;;7.18;74.80
10732;BME280;5417;42.686;23.244;2023-03-04T08:35:18;94289.28;;;7.24;74.30
10732;BME280;5417;42.686;23.244;2023-03-04T08:37:45;94281.63;;;7.23;75.71
10732;BME280;5417;42.686;23.244;2023-03-04T08:40:13;94289.94;;;7.15;73.85
10732;BME280;5417;42.686;23.244;2023-03-04T08:42:42;94283.13;;;7.14;75.38
10732;BME280;5417;42.686;23.244;2023-03-04T08:45:09;94277.13;;;7.14;74.45
10732;BME280;5417;42.686;23.244;2023-03-04T08:47:37;94271.72;;;7.17;75.36
10732;BME280;5417;42.686;23.244;2023-03-04T08:50:06;94285.44;;;7.43;73.96
10732;BME280;5417;42.686;23.244;2023-03-04T08:52:33;94281.31;;;7.64;73.28
10732;BME280;5417;42.686;23.244;2023-03-04T08:55:00;94285.69;;;7.87;74.11
10732;BME280;5417;42.686;23.244;2023-03-04T08:57:27;94276.88;;;8.01;73.77
10732;BME280;5417;42.686;23.244;2023-03-04T08:59:58;94272.97;;;8.31;71.39
10732;BME280;5417;42.686;23.244;2023-03-04T09:02:25;94278.59;;;8.48;70.77
10732;BME280;5417;42.686;23.244;2023-03-04T09:04:52;94262.09;;;8.49;71.43
10732;BME280;5417;42.686;23.244;2023-03-04T09:07:19;94275.75;;;8.51;71.73
10732;BME280;5417;42.686;23.244;2023-03-04T09:09:45;94268.34;;;8.47;70.00
10732;BME280;5417;42.686;23.244;2023-03-04T09:12:12;94270.94;;;8.47;70.48
10732;BME280;5417;42.686;23.244;2023-03-04T09:14:39;94265.88;;;8.68;72.23
10732;BME280;5417;42.686;23.244;2023-03-04T09:17:07;94260.44;;;8.82;71.05
10732;BME280;5417;42.686;23.244;2023-03-04T09:19:35;94259.41;;;8.96;69.56
10732;BME280;5417;42.686;23.244;2023-03-04T09:22:02;94254.94;;;8.87;68.51
10732;BME280;5417;42.686;23.244;2023-03-04T09:24:29;94250.44;;;9.00;68.21
10732;BME280;5417;42.686;23.244;2023-03-04T09:26:56;94240.06;;;9.00;68.33
10732;BME280;5417;42.686;23.244;2023-03-04T09:29:23;94254.56;;;9.02;69.97
10732;BME280;5417;42.686;23.244;2023-03-04T09:31:50;94252.53;;;8.61;70.90
10732;BME280;5417;42.686;23.244;2023-03-04T09:34:18;94259.97;;;8.43;72.20
10732;BME280;5417;42.686;23.244;2023-03-04T09:36:45;94247.38;;;8.26;71.91
10732;BME280;5417;42.686;23.244;2023-03-04T09:39:12;94254.56;;;8.22;72.10
10732;BME280;5417;42.686;23.244;2023-03-04T09:41:41;94246.78;;;8.22;72.29
10732;BME280;5417;42.686;23.244;2023-03-04T09:44:21;94249.69;;;8.42;72.74
10732;BME280;5417;42.686;23.244;2023-03-04T09:46:50;94247.25;;;8.28;70.80
10732;BME280;5417;42.686;23.244;2023-03-04T09:49:19;94250.69;;;8.28;71.95
10732;BME280;5417;42.686;23.244;2023-03-04T09:51:52;94241.34;;;8.14;70.95
10732;BME280;5417;42.686;23.244;2023-03-04T09:54:29;94241.25;;;8.27;71.40
10732;BME280;5417;42.686;23.244;2023-03-04T09:56:59;94243.47;;;8.56;72.41
10732;BME280;5417;42.686;23.244;2023-03-04T09:59:39;94244.19;;;8.69;71.34
10732;BME280;5417;42.686;23.244;2023-03-04T10:02:15;94245.25;;;8.89;69.77
10732;BME280;5417;42.686;23.244;2023-03-04T10:04:48;94239.94;;;8.90;68.97
10732;BME280;5417;42.686;23.244;2023-03-04T10:07:18;94238.19;;;8.91;nan
10732;BME280;5417;42.686;23.244;2023-03-04T10:09:50;94223.09;;;8.84;68.97
10732;BME280;5417;42.686;23.244;2023-03-04T10:12:21;94233.00;;;8.91;70.07
10732;BME280;5417;42.686;23.244;2023-03-04T10:14:53;94222.34;;;8.82;69.12
10732;BME280;5417;42.686;23.244;2023-03-04T10:17:25;94201.59;;;8.82;70.03
10732;BME280;5417;42.686;23.244;2023-03-04T10:20:01;94212.69;;;9.07;68.34
10732;BME280;5417;42.686;23.244;2023-03-04T10:22:33;94199.91;;;9.15;69.41
10732;BME280;5417;42.686;23.244;2023-03-04T10:25:14;94214.59;;;9.48;68.44
10732;BME280;5417;42.686;23.244;2023-03-04T10:27:41;94210.19;;;9.60;68.36
10732;BME280;5417;42.686;23.244;2023-03-04T10:30:17;94206.34;;;9.43;67.43
10732;BME280;5417;42.686;23.244;2023-03-04T10:32:46;94191.84;;;9.40;68.01
10732;BME280;5417;42.686;23.244;2023-03-04T10:35:15;94196.16;;;9.51;67.52
10732;BME280;5417;42.686;23.244;2023-03-04T10:37:44;94165.66;;;9.21;67.88
10732;BME280;5417;42.686;23.244;2023-03-04T10:40:18;94197.34;;;9.04;67.83
10732;BME280;5417;42.686;23.244;2023-03-04T10:42:47;94189.34;;;8.96;68.16
10732;BME280;5417;42.686;23.244;2023-03-04T10:45:19;94180.69;;;9.06;69.69
10732;BME280;5417;42.686;23.244;2023-03-04T10:47:51;94183.44;;;8.94;68.96
10732;BME280;5417;42.686;23.244;2023-03-04T10:50:23;94181.31;;;8.88;71.00
10732;BME280;5417;42.686;23.244;2023-03-04T10:52:51;94168.09;;;8.68;71.01
10732;BME280;5417;42.686;23.244;2023-03-04T10:55:21;94172.72;;;8.65;71.34
10732;BME280;5417;42.686;23.244;2023-03-04T10:57:50;94168.00;;;8.59;72.21
10732;BME280;5417;42.686;23.244;2023-03-04T11:00:26;94168.34;;;8.54;71.64
10732;BME280;5417;42.686;23.244;2023-03-04T11:03:19;94157.03;;;8.55;71.98
10732;BME280;5417;42.686;23.244;2023-03-04T11:05:49;94153.50;;;8.67;71.95
10732;BME280;5417;42.686;23.244;2023-03-04T11:08:20;94157.59;;;8.81;71.69
10732;BME280;5417;42.686;23.244;2023-03-04T11:10:48;94161.00;;;8.81;70.72
10732;BME280;5417;42.686;23.244;2023-03-04T11:13:18;94149.47;;;8.85;71.15
10732;BME280;5417;42.686;23.244;2023-03-04T11:15:50;94153.34;;;9.02;69.78
10732;BME280;5417;42.686;23.244;2023-03-04T11:18:21;94144.09;;;9.09;70.52
10732;BME280;5417;42.686;23.244;2023-03-04T11:20:53;94138.84;;;8.77;70.67
10732;BME280;5417;42.686;23.244;2023-03-04T11:23:25;94132.47;;;8.81;70.68
10732;BME280;5417;42.686;23.244;2023-03-04T11:25:58;94128.34;;;8.79;71.46
10732;BME280;5417;42.686;23.244;2023-03-04T11:28:35;94139.94;;;8.64;72.81
10732;BME280;5417;42.686;23.244;2023-03-04T11:31:12;94101.28;;;8.49;71.55
10732;BME280;5417;42.686;23.244;2023-03-04T11:33:42;94121.88;;;8.73;71.56
10732;BME280;5417;42.686;23.244;2023-03-04T11:36:22;94104.78;;;8.71;72.29
10732;BME280;5417;42.686;23.244;2023-03-04T11:38:52;94117.22;;;8.99;71.04
10732;BME280;5417;42.686;23.244;2023-03-04T11:41:24;94118.97;;;9.10;70.77
10732;BME280;5417;42.686;23.244;2023-03-04T11:43:54;94106.88;;;9.20;71.07
10732;BME280;5417;42.686;23.244;2023-03-04T11:46:42;94099.84;;;9.43;69.77
10732;BME280;5417;42.686;23.244;2023-03-04T11:49:27;94096.75;;;9.70;69.82
10732;BME280;5417;42.686;23.244;2023-03-04T11:52:04;94087.06;;;9.72;69.68
10732;BME280;5417;42.686;23.244;2023-03-04T11:54:43;94090.22;;;9.75;68.06
10732;BME280;5417;42.686;23.244;2023-03-04T11:57:22;94071.41;;;9.62;68.98
10732;BME280;5417;42.686;23.244;2023-03-04T12:00:08;94087.63;;;9.55;68.71
10732;BME280;5417;42.686;23.244;2023-03-04T12:02:47;94088.69;;;9.73;69.48
10732;BME280;5417;42.686;23.244;2023-03-04T12:05:33;94080.53;;;9.77;68.55
10732;BME280;5417;42.686;23.244;2023-03-04T12:08:20;94076.66;;;9.72;67.18
10732;BME280;5417;42.686;23.244;2023-03-04T12:11:00;94075.56;;;9.74;67.59
10732;BME280;5417;42.686;23.244;2023-03-04T12:13:51;94078.09;;;9.86;66.44
10732;BME280;5417;42.686;23.244;2023-03-04T12:16:55;94076.78;;;9.91;66.66
10732;BME280;5417;42.686;23.244;2023-03-04T12:19:35;94066.19;;;10.04;66.35
10732;BME280;5417;42.686;23.244;2023-03-04T12:22:19;94062.31;;;9.98;65.76
10732;BME280;5417;42.686;23.244;2023-03-04T12:28:25;94062.41;;;10.18;65.50
10732;BME280;5417;42.686;23.244;2023-03-04T12:31:10;94064.94;;;10.29;64.92
10732;BME280;5417;42.686;23.244;2023-03-04T12:33:46;94042.66;;;10.36;64.58
10732;BME280;5417;42.686;23.244;2023-03-04T12:36:23;94038.00;;;10.39;64.00
10732;BME280;5417;42.686;23.244;2023-03-04T12:38:59;94049.16;;;10.51;63.63
10732;BME280;5417;42.686;23.244;2023-03-04T12:41:40;94032.56;;;10.42;63.74
10732;BME280;5417;42.686;23.244;2023-03-04T12:44:13;94049.84;;;10.53;63.01
10732;BME280;5417;42.686;23.244;2023-03-04T12:47:04;94040.97;;;10.65;62.58
10732;BME280;5417;42.686;23.244;2023-03-04T12:49:45;94030.00;;;10.62;63.17
10732;BME280;5417;42.686;23.244;2023-03-04T12:52:23;94034.66;;;10.68;63.16
10732;BME280;5417;42.686;23.244;2023-03-04T12:54:55;94035.63;;;10.77;63.53
10732;BME280;5417;42.686;23.244;2023-03-04T12:57:25;94021.25;;;10.72;62.49
10732;BME280;5417;42.686;23.244;2023-03-04T13:00:03;94031.63;;;10.63;62.80
10732;BME280;5417;42.686;23.244;2023-03-04T13:05:28;94016.22;;;10.31;63.04
10732;BME280;5417;42.686;23.244;2023-03-04T13:08:06;94015.91;;;10.24;63.34
10732;BME280;5417;42.686;23.244;2023-03-04T13:10:34;94017.97;;;10.30;63.30
10732;BME280;5417;42.686;23.244;2023-03-04T13:13:04;94010.06;;;10.32;63.11
10732;BME280;5417;42.686;23.244;2023-03-04T13:15:36;94002.53;;;10.38;63.49
10732;BME280;5417;42.686;23.244;2023-03-04T13:18:30;94008.75;;;10.47;64.06
10732;BME280;5417;42.686;23.244;2023-03-04T13:21:20;93982.72;;;10.57;62.79
10732;BME280;5417;42.686;23.244;2023-03-04T13:23:48;94000.94;;;10.57;63.11
10732;BME280;5417;42.686;23.244;2023-03-04T13:26:17;93990.41;;;10.49;63.13
10732;BME280;5417;42.686;23.244;2023-03-04T13:28:51;93990.94;;;10.52;62.98
10732;BME280;5417;42.686;23.244;2023-03-04T13:31:23;93996.84;;;10.54;62.30